Time;durP1;ratioP1;P1;durP2;ratioP2;P2;SDS_P1;SDS_P2;PMS_P1;PMS_P2;Temp;Humidity;BMP_temperature;BMP_pressure;BME280_temperature;BME280_humidity;BME280_pressure;Samples;Min_cycle;Max_cycle;Signal;HPM_P1;HPM_P2
2023/05/16 06:33:18;;;;;;;;;6.75;5.00;;;;;17.02;57.53;101914.53;5086956;27;46075;-71
2023/05/16 06:35:43;;;;;;;;;3.25;2.00;;;;;17.17;57.79;101919.94;5084619;27;45694;-72
2023/05/16 06:38:08;;;;;;;;;3.50;3.50;;;;;17.34;57.32;101919.69;5085206;27;45521;-72
2023/05/16 06:40:34;;;;;;;;;5.75;4.50;;;;;17.53;57.31;101918.50;5088078;27;45595;-72
2023/05/16 06:42:59;;;;;;;;;2.00;2.00;;;;;17.71;56.74;101918.28;5079180;27;45433;-73
2023/05/16 06:45:25;;;;;;;;;7.50;3.50;;;;;17.90;56.49;101929.53;5084450;27;55693;-72
2023/05/16 06:47:50;;;;;;;;;6.00;3.00;;;;;18.06;56.38;101925.81;5084718;27;45625;-72
2023/05/16 06:50:16;;;;;;;;;3.00;1.67;;;;;18.26;56.00;101940.63;5082082;27;45469;-72
2023/05/16 06:52:41;;;;;;;;;2.67;2.67;;;;;18.42;55.89;101939.56;5084213;27;45941;-72
2023/05/16 06:55:07;;;;;;;;;4.00;1.00;;;;;18.55;55.24;101935.06;5087228;27;45427;-72
2023/05/16 06:57:32;;;;;;;;;2.33;2.33;;;;;18.61;54.97;101916.78;5085847;27;45823;-72
2023/05/16 06:59:58;;;;;;;;;3.00;1.67;;;;;18.79;54.64;101938.84;5086540;27;48986;-73
2023/05/16 07:02:23;;;;;;;;;3.33;2.00;;;;;18.91;55.15;101931.72;5085425;27;54534;-73
2023/05/16 07:04:48;;;;;;;;;2.67;2.00;;;;;19.00;54.52;101938.31;5084440;27;45407;-72
2023/05/16 07:07:14;;;;;;;;;1.00;1.00;;;;;19.13;54.45;101938.31;5104271;27;46163;-73
2023/05/16 07:09:39;;;;;;;;;3.00;2.00;;;;;19.17;54.32;101937.97;5086135;27;45475;-73
2023/05/16 07:12:05;;;;;;;;;2.33;2.33;;;;;19.26;53.91;101933.78;5086146;27;47227;-74
2023/05/16 07:14:30;;;;;;;;;3.00;1.00;;;;;19.34;53.30;101944.81;5082910;27;45466;-72
2023/05/16 07:16:55;;;;;;;;;4.00;2.00;;;;;19.42;53.51;101948.81;5089077;27;45800;-72
2023/05/16 07:19:21;;;;;;;;;4.33;2.33;;;;;19.48;53.53;101960.00;5085302;27;47247;-72
2023/05/16 07:21:46;;;;;;;;;1.50;1.50;;;;;19.53;53.34;101948.88;5085864;27;45837;-71
2023/05/16 07:24:12;;;;;;;;;3.00;3.00;;;;;19.53;53.28;101940.78;5085699;27;54332;-73
2023/05/16 07:26:37;;;;;;;;;0.67;0.67;;;;;19.63;53.09;101954.47;5087771;27;45899;-73
2023/05/16 07:29:03;;;;;;;;;2.33;2.33;;;;;19.68;52.98;101946.91;5082309;27;45521;-73
2023/05/16 07:31:28;;;;;;;;;2.00;2.00;;;;;19.72;52.79;101953.78;5087332;27;45834;-73
2023/05/16 07:33:54;;;;;;;;;3.00;1.67;;;;;19.75;52.53;101961.63;5082561;27;45560;-73
2023/05/16 07:36:20;;;;;;;;;2.67;1.67;;;;;19.77;52.45;101942.66;5075835;27;45526;-73
2023/05/16 07:38:45;;;;;;;;;2.00;1.00;;;;;19.82;51.93;101953.09;5083031;27;45514;-71
2023/05/16 07:41:11;;;;;;;;;2.00;2.00;;;;;19.84;52.04;101956.53;5086964;27;45532;-73
2023/05/16 07:43:36;;;;;;;;;0.00;0.00;;;;;19.85;52.23;101953.72;5080732;27;45550;-74
2023/05/16 07:46:02;;;;;;;;;1.00;1.00;;;;;19.86;51.62;101943.78;5074179;27;45556;-73
2023/05/16 07:48:27;;;;;;;;;1.00;1.00;;;;;19.92;51.73;101950.56;5067524;28;45462;-73
2023/05/16 07:50:54;;;;;;;;;2.00;2.00;;;;;19.92;51.87;101951.44;5070495;28;45620;-73
2023/05/16 07:53:20;;;;;;;;;1.00;1.00;;;;;19.95;51.57;101943.09;5067976;28;45665;-73
2023/05/16 07:55:45;;;;;;;;;1.00;1.00;;;;;20.01;51.31;101948.09;5066501;28;45497;-73
2023/05/16 07:58:11;;;;;;;;;2.00;0.33;;;;;20.03;51.29;101945.28;5061397;28;45745;-73
2023/05/16 08:00:36;;;;;;;;;2.33;1.33;;;;;20.05;51.31;101947.81;5068106;27;46877;-73
2023/05/16 08:03:03;;;;;;;;;2.00;2.00;;;;;20.06;51.01;101947.72;5065984;28;49212;-71
2023/05/16 08:05:28;;;;;;;;;1.67;1.67;;;;;20.01;50.94;101945.38;5066532;28;45474;-73
2023/05/16 08:07:54;;;;;;;;;2.00;2.00;;;;;20.08;51.05;101953.88;5068682;28;49596;-73
2023/05/16 08:10:19;;;;;;;;;2.00;2.00;;;;;20.10;50.91;101951.91;5065058;27;45999;-74
2023/05/16 08:12:45;;;;;;;;;2.00;2.00;;;;;20.11;51.50;101945.53;5066663;28;45561;-70
2023/05/16 08:15:10;;;;;;;;;2.00;2.00;;;;;20.14;51.20;101945.31;5066639;27;45596;-71
2023/05/16 08:17:37;;;;;;;;;1.00;1.00;;;;;20.14;51.20;101945.31;5072297;28;47023;-70
2023/05/16 08:20:02;;;;;;;;;1.00;1.00;;;;;20.20;51.65;101951.22;5071005;27;45904;-70
2023/05/16 08:22:28;;;;;;;;;1.00;1.00;;;;;20.21;51.57;101943.00;5062588;28;45565;-71
2023/05/16 08:24:56;;;;;;;;;1.33;1.33;;;;;20.24;51.05;101958.94;5074207;27;45435;-71
2023/05/16 08:27:22;;;;;;;;;2.00;2.00;;;;;20.25;51.21;101941.81;5067148;27;45452;-70
2023/05/16 08:29:48;;;;;;;;;2.67;1.00;;;;;20.27;51.33;101960.53;5070918;27;45610;-69
2023/05/16 08:32:13;;;;;;;;;2.00;2.00;;;;;20.33;50.94;101957.38;5071655;28;46306;-70
2023/05/16 08:34:38;;;;;;;;;1.00;1.00;;;;;20.33;51.01;101941.22;5072171;28;45452;-70
2023/05/16 08:37:04;;;;;;;;;2.00;1.00;;;;;20.38;50.90;101959.72;5068281;28;45384;-70
2023/05/16 08:39:29;;;;;;;;;1.00;1.00;;;;;20.37;51.53;101953.47;5074111;27;46204;-70
2023/05/16 08:41:55;;;;;;;;;3.00;1.00;;;;;20.43;51.04;101951.28;5073004;27;45514;-70
2023/05/16 08:44:20;;;;;;;;;2.00;1.00;;;;;20.35;51.00;101928.47;5065382;27;45825;-71
2023/05/16 08:46:53;;;;;;;;;2.00;2.00;;;;;20.48;51.40;101955.31;5073928;27;45422;-71
2023/05/16 08:49:19;;;;;;;;;1.00;1.00;;;;;20.49;50.91;101951.69;5068396;27;45952;-71
2023/05/16 08:51:46;;;;;;;;;1.67;1.67;;;;;20.50;51.37;101955.22;5073547;27;45623;-71
2023/05/16 08:54:13;;;;;;;;;2.33;1.33;;;;;20.52;50.98;101964.06;5072017;27;45786;-70
2023/05/16 08:56:41;;;;;;;;;1.67;1.00;;;;;20.54;51.54;101957.56;5072728;28;45536;-71
2023/05/16 08:59:07;;;;;;;;;0.00;0.00;;;;;20.57;51.00;101964.56;5065327;28;46389;-69
2023/05/16 09:01:32;;;;;;;;;2.67;0.67;;;;;20.59;51.40;101953.63;5071724;27;45830;-69
2023/05/16 09:03:59;;;;;;;;;1.33;1.00;;;;;20.61;51.21;101963.34;5072377;27;45506;-68
2023/05/16 09:06:26;;;;;;;;;1.00;1.00;;;;;20.63;51.31;101961.38;5071802;27;45570;-68
2023/05/16 09:08:52;;;;;;;;;1.33;0.00;;;;;20.65;51.45;101962.09;5072581;27;46371;-68
2023/05/16 09:11:18;;;;;;;;;1.00;0.67;;;;;20.70;51.29;101955.50;5071858;27;45425;-69
2023/05/16 09:13:44;;;;;;;;;2.33;2.00;;;;;20.72;50.87;101958.97;5073178;27;45525;-68
2023/05/16 09:16:13;;;;;;;;;1.67;1.67;;;;;20.74;51.35;101955.16;5070124;28;45629;-70
2023/05/16 09:18:41;;;;;;;;;1.00;1.00;;;;;20.75;51.02;101954.16;5072546;28;46232;-71
2023/05/16 09:21:09;;;;;;;;;1.00;1.00;;;;;20.76;50.56;101963.13;5071822;28;45827;-68
2023/05/16 09:23:35;;;;;;;;;3.00;1.00;;;;;20.77;50.29;101964.84;5072411;27;45440;-70
2023/05/16 09:26:01;;;;;;;;;2.00;2.00;;;;;20.77;50.01;101954.88;5063908;28;45867;-70
2023/05/16 09:28:27;;;;;;;;;2.67;1.33;;;;;20.78;49.73;101951.25;5064745;28;45472;-70
2023/05/16 09:30:53;;;;;;;;;1.67;1.67;;;;;20.77;49.62;101946.81;5072107;28;45635;-71
2023/05/16 09:33:21;;;;;;;;;2.00;1.00;;;;;20.73;48.97;101966.06;5072810;27;45659;-70
2023/05/16 09:35:59;;;;;;;;;1.00;1.00;;;;;20.75;49.48;101956.00;5072602;27;45981;-70
2023/05/16 09:38:27;;;;;;;;;1.33;1.00;;;;;20.73;48.76;101958.84;5065810;27;45635;-70
2023/05/16 09:40:53;;;;;;;;;3.00;2.33;;;;;20.65;49.44;101945.09;5069312;28;45585;-70
2023/05/16 09:43:22;;;;;;;;;4.00;2.00;;;;;20.73;49.38;101966.06;5060563;27;46701;-69
2023/05/16 09:45:48;;;;;;;;;1.00;1.00;;;;;20.75;49.40;101950.59;5067569;28;45382;-69
2023/05/16 09:48:15;;;;;;;;;3.00;1.00;;;;;20.76;48.82;101944.25;5061491;27;45976;-69
2023/05/16 09:50:46;;;;;;;;;4.00;2.00;;;;;20.77;48.74;101945.97;5066985;28;45496;-69
2023/05/16 09:53:12;;;;;;;;;2.00;1.33;;;;;20.75;48.96;101950.59;5068901;27;45850;-70
2023/05/16 09:55:38;;;;;;;;;2.00;2.00;;;;;20.77;48.93;101964.84;5068009;28;45554;-70
2023/05/16 09:58:03;;;;;;;;;1.67;1.67;;;;;20.77;49.17;101965.69;5069670;27;46009;-71
2023/05/16 10:00:31;;;;;;;;;0.67;0.00;;;;;20.78;48.92;101955.75;5069570;27;45467;-70
2023/05/16 10:02:57;;;;;;;;;1.00;1.00;;;;;20.78;49.18;101947.66;5068811;28;45618;-69
2023/05/16 10:05:26;;;;;;;;;1.33;1.33;;;;;20.82;49.48;101953.69;5071282;28;45834;-69
2023/05/16 10:07:55;;;;;;;;;2.00;0.33;;;;;20.83;49.01;101956.25;5066129;27;46088;-69
2023/05/16 10:10:20;;;;;;;;;2.00;1.33;;;;;20.86;49.43;101958.75;5070370;28;45330;-69
2023/05/16 10:12:46;;;;;;;;;2.00;0.67;;;;;20.88;49.25;101959.47;5067119;28;45792;-69
2023/05/16 10:15:13;;;;;;;;;0.00;0.00;;;;;20.91;49.18;101955.69;5066516;27;45918;-69
2023/05/16 10:17:39;;;;;;;;;2.00;0.33;;;;;20.92;49.86;101955.56;5071961;28;46090;-69
2023/05/16 10:20:08;;;;;;;;;3.00;1.00;;;;;20.95;49.39;101962.56;5070717;27;45430;-71
2023/05/16 10:22:34;;;;;;;;;1.00;1.00;;;;;20.96;49.51;101953.47;5071400;28;45526;-71
2023/05/16 10:25:10;;;;;;;;;2.00;1.00;;;;;20.97;49.64;101949.78;5065838;27;45503;-70
2023/05/16 10:27:37;;;;;;;;;0.67;0.67;;;;;21.02;49.87;101954.84;5069633;28;45973;-71
2023/05/16 10:30:04;;;;;;;;;0.67;0.33;;;;;21.06;50.18;101956.31;5061603;28;45931;-70
2023/05/16 10:32:30;;;;;;;;;1.67;1.67;;;;;21.08;49.86;101950.81;5066394;28;45512;-70
2023/05/16 10:34:56;;;;;;;;;1.00;1.00;;;;;21.07;49.98;101944.53;5067023;28;45489;-69
2023/05/16 10:37:23;;;;;;;;;2.00;2.00;;;;;21.11;49.73;101953.22;5070552;27;46841;-71
2023/05/16 10:39:49;;;;;;;;;1.00;1.00;;;;;21.12;49.77;101942.31;5069793;27;46337;-70
2023/05/16 10:42:17;;;;;;;;;0.00;0.00;;;;;21.16;50.17;101964.53;5066727;28;45558;-72
2023/05/16 10:44:42;;;;;;;;;2.00;2.00;;;;;21.18;49.93;101955.31;5064492;27;46436;-73
2023/05/16 10:47:08;;;;;;;;;1.33;1.33;;;;;21.21;49.87;101951.50;5065974;28;47353;-73
2023/05/16 10:49:33;;;;;;;;;2.00;1.67;;;;;21.21;50.00;101953.38;5070542;27;45939;-75
2023/05/16 10:52:10;;;;;;;;;0.67;0.67;;;;;21.24;50.14;101948.56;5082133;27;45571;-75
2023/05/16 10:54:38;;;;;;;;;1.67;0.67;;;;;21.25;50.31;101950.28;5068464;28;45521;-74
2023/05/16 10:57:06;;;;;;;;;2.00;0.67;;;;;21.24;50.25;101948.56;5065593;28;47070;-73
2023/05/16 10:59:42;;;;;;;;;2.00;1.00;;;;;21.29;50.47;101949.06;5064669;27;45457;-74
2023/05/16 11:02:25;;;;;;;;;2.00;0.00;;;;;21.29;50.47;101943.66;5069364;28;46104;-74
2023/05/16 11:04:51;;;;;;;;;0.33;0.33;;;;;21.35;49.22;101941.44;5066584;28;45479;-72
2023/05/16 11:07:18;;;;;;;;;1.67;1.67;;;;;21.31;48.46;101939.00;5058800;28;46598;-72
2023/05/16 11:09:45;;;;;;;;;1.33;1.33;;;;;21.29;47.88;101932.84;5063026;28;46784;-72
2023/05/16 11:12:11;;;;;;;;;2.00;2.00;;;;;21.29;48.25;101926.63;5069311;28;45604;-71
2023/05/16 11:14:41;;;;;;;;;2.00;1.00;;;;;21.27;47.65;101937.53;5063449;27;45741;-72
2023/05/16 11:17:32;;;;;;;;;2.00;2.00;;;;;21.24;46.15;101940.47;5069508;27;46304;-71
2023/05/16 11:20:02;;;;;;;;;1.00;1.00;;;;;21.20;46.42;101949.78;5064911;28;45516;-71
2023/05/16 11:22:28;;;;;;;;;2.00;2.00;;;;;21.19;47.29;101937.28;5071849;27;45430;-71
2023/05/16 11:25:04;;;;;;;;;1.00;1.00;;;;;21.15;46.77;101920.47;5074982;27;45432;-71
2023/05/16 11:27:46;;;;;;;;;3.00;1.33;;;;;21.14;47.12;101937.63;5074172;28;47368;-71
2023/05/16 11:30:14;;;;;;;;;2.33;1.67;;;;;21.12;47.11;101936.91;5071130;28;45970;-71
2023/05/16 11:32:42;;;;;;;;;2.00;2.00;;;;;21.11;46.72;101937.91;5074217;27;45491;-71
2023/05/16 11:35:10;;;;;;;;;0.00;0.00;;;;;21.11;47.48;101931.63;5074925;28;45622;-71
2023/05/16 11:37:37;;;;;;;;;1.67;1.33;;;;;21.04;47.36;101932.13;5065481;28;46383;-73
2023/05/16 11:40:03;;;;;;;;;4.67;2.00;;;;;21.09;46.68;101947.13;5070555;27;45599;-73
2023/05/16 11:42:30;;;;;;;;;3.00;1.67;;;;;20.99;47.24;101923.56;5078748;27;45669;-74
2023/05/16 11:45:19;;;;;;;;;5.00;1.67;;;;;21.05;47.22;101922.22;5096575;27;45382;-73
2023/05/16 11:47:46;;;;;;;;;2.00;2.00;;;;;21.09;47.62;101930.91;5074199;27;46409;-73
2023/05/16 11:50:17;;;;;;;;;2.00;2.00;;;;;21.11;47.44;101924.41;5072272;27;45495;-73
2023/05/16 11:52:49;;;;;;;;;1.67;1.00;;;;;21.15;47.99;101927.72;5073286;27;45532;-73
2023/05/16 11:55:17;;;;;;;;;3.00;2.33;;;;;21.17;48.20;101937.41;5068372;28;46122;-72
2023/05/16 11:57:42;;;;;;;;;4.00;2.00;;;;;21.17;47.98;101909.56;5068853;27;45490;-73
2023/05/16 12:00:18;;;;;;;;;1.67;1.67;;;;;21.23;48.23;101922.56;5075207;28;45514;-73
2023/05/16 12:02:46;;;;;;;;;1.00;1.00;;;;;21.28;47.65;101920.34;5073492;27;47958;-72
2023/05/16 12:05:12;;;;;;;;;3.00;1.00;;;;;21.31;48.01;101928.19;5070431;27;45486;-72
2023/05/16 12:07:37;;;;;;;;;4.00;1.00;;;;;21.32;47.48;101913.72;5062106;27;46307;-73
2023/05/16 12:10:06;;;;;;;;;5.00;3.00;;;;;21.32;47.80;101913.72;5073891;28;45441;-72
2023/05/16 12:12:32;;;;;;;;;2.67;2.00;;;;;21.36;47.90;101919.72;5074170;27;45516;-71
2023/05/16 12:14:58;;;;;;;;;3.33;2.00;;;;;21.35;48.04;101906.31;5067708;27;45598;-72
2023/05/16 12:17:24;;;;;;;;;1.00;1.00;;;;;21.38;47.79;101909.63;5074749;27;45504;-74
2023/05/16 12:19:49;;;;;;;;;4.00;2.00;;;;;21.42;48.15;101907.56;5068643;28;45652;-74
2023/05/16 12:22:17;;;;;;;;;2.00;0.67;;;;;21.44;48.00;101910.97;5068865;28;45638;-74
2023/05/16 12:24:43;;;;;;;;;2.33;1.00;;;;;21.49;48.10;101916.00;5070088;28;45521;-71
2023/05/16 12:27:08;;;;;;;;;1.00;1.00;;;;;21.52;48.44;101921.16;5074269;27;45616;-70
2023/05/16 12:29:33;;;;;;;;;2.00;2.00;;;;;21.55;48.83;101918.19;5073267;28;46639;-71
2023/05/16 12:31:59;;;;;;;;;3.33;1.00;;;;;21.57;48.29;101908.97;5074288;27;45555;-70
2023/05/16 12:34:28;;;;;;;;;2.00;1.00;;;;;21.61;48.66;101901.47;5068600;27;45473;-70
2023/05/16 12:36:54;;;;;;;;;1.00;1.00;;;;;21.64;48.18;101901.22;5068513;28;45435;-70
2023/05/16 12:39:19;;;;;;;;;4.67;1.67;;;;;21.63;48.43;101896.81;5056827;27;45591;-71
2023/05/16 12:41:45;;;;;;;;;0.00;0.00;;;;;21.69;48.64;101892.72;5071547;27;45634;-71
2023/05/16 12:44:13;;;;;;;;;3.33;2.00;;;;;21.73;48.86;101890.69;5073775;27;45386;-71
2023/05/16 12:46:48;;;;;;;;;4.00;2.00;;;;;21.76;48.84;101891.28;5074246;27;46443;-70
2023/05/16 12:49:13;;;;;;;;;1.00;1.00;;;;;21.79;48.53;101892.84;5064078;28;45698;-71
2023/05/16 12:51:39;;;;;;;;;0.00;0.00;;;;;21.81;49.08;101896.28;5068327;28;45502;-71
2023/05/16 12:54:11;;;;;;;;;1.33;0.00;;;;;21.80;48.95;101887.34;5074607;27;45629;-73
2023/05/16 12:56:40;;;;;;;;;1.00;1.00;;;;;21.86;48.62;101888.63;5064822;28;45557;-73
2023/05/16 12:59:06;;;;;;;;;2.00;2.00;;;;;21.88;48.68;101907.44;5058376;27;45481;-72
2023/05/16 13:01:32;;;;;;;;;2.00;1.67;;;;;21.91;48.89;101894.50;5067890;27;45502;-71
2023/05/16 13:03:58;;;;;;;;;1.67;1.00;;;;;21.91;49.14;101899.91;5073751;27;45506;-71
2023/05/16 13:06:23;;;;;;;;;0.67;0.67;;;;;21.95;48.81;101895.97;5063324;28;45743;-71
2023/05/16 13:08:48;;;;;;;;;2.00;2.00;;;;;21.98;49.11;101901.13;5069834;27;45297;-71
2023/05/16 13:11:14;;;;;;;;;1.00;1.00;;;;;22.01;49.17;101894.59;5073774;28;45803;-70
2023/05/16 13:13:39;;;;;;;;;2.67;1.00;;;;;22.04;48.94;101898.88;5065080;27;45332;-70
2023/05/16 13:16:05;;;;;;;;;1.33;1.00;;;;;22.07;49.22;101894.06;5071794;27;45994;-72
2023/05/16 13:18:30;;;;;;;;;1.00;1.00;;;;;22.04;47.33;101890.78;5070211;27;45431;-73
2023/05/16 13:20:56;;;;;;;;;1.00;1.00;;;;;21.99;47.07;101891.19;5073535;28;45508;-73
2023/05/16 13:23:21;;;;;;;;;1.00;1.00;;;;;21.91;47.07;101882.84;5072043;27;51162;-72
2023/05/16 13:25:46;;;;;;;;;0.00;0.00;;;;;21.89;47.27;101885.69;5070688;27;45694;-72
2023/05/16 13:28:12;;;;;;;;;1.00;0.00;;;;;21.84;47.19;101879.81;5073404;27;45476;-73
2023/05/16 13:30:38;;;;;;;;;1.33;1.00;;;;;21.79;47.15;101903.66;5073737;27;45533;-72
2023/05/16 13:33:04;;;;;;;;;1.33;0.00;;;;;21.74;47.57;101897.78;5072967;27;45442;-72
2023/05/16 13:35:29;;;;;;;;;0.67;0.67;;;;;21.69;47.40;101892.72;5073728;27;45615;-72
2023/05/16 13:37:54;;;;;;;;;0.00;0.00;;;;;21.69;47.25;101907.09;5060547;27;45501;-72
2023/05/16 13:40:20;;;;;;;;;1.00;1.00;;;;;21.64;47.47;101903.94;5073788;27;45730;-72
2023/05/16 13:42:45;;;;;;;;;0.00;0.00;;;;;21.60;47.41;101910.56;5072754;27;45465;-72
2023/05/16 13:45:11;;;;;;;;;0.00;0.00;;;;;21.58;47.07;101897.19;5073118;28;46048;-72
2023/05/16 13:47:37;;;;;;;;;0.00;0.00;;;;;21.43;47.09;101879.56;5073405;27;45467;-73
2023/05/16 13:50:06;;;;;;;;;1.00;1.00;;;;;21.52;47.42;101911.22;5089248;27;45378;-72
2023/05/16 13:52:32;;;;;;;;;2.33;1.00;;;;;21.48;47.23;101909.75;5069319;27;45587;-70
2023/05/16 13:54:57;;;;;;;;;0.00;0.00;;;;;21.40;47.46;101893.31;5068474;28;45616;-73
2023/05/16 13:57:22;;;;;;;;;0.33;0.33;;;;;21.51;47.42;101908.63;5066840;28;51011;-71
2023/05/16 13:59:48;;;;;;;;;1.67;1.00;;;;;21.52;47.22;101904.94;5073151;27;45640;-73
2023/05/16 14:02:13;;;;;;;;;0.67;0.67;;;;;21.53;47.86;101901.25;5070904;27;45393;-74
2023/05/16 14:04:39;;;;;;;;;2.67;1.67;;;;;21.52;47.33;101905.81;5052516;27;45699;-73
2023/05/16 14:07:05;;;;;;;;;1.67;1.67;;;;;21.54;47.56;101903.00;5067956;28;45511;-74
2023/05/16 14:09:33;;;;;;;;;2.00;0.00;;;;;21.54;46.83;101900.28;5073027;28;45659;-74
2023/05/16 14:11:59;;;;;;;;;0.00;0.00;;;;;21.54;47.32;101903.00;5072602;28;45503;-70
2023/05/16 14:14:24;;;;;;;;;3.00;0.67;;;;;21.54;46.98;101908.38;5072544;28;45523;-71
2023/05/16 14:16:49;;;;;;;;;2.33;1.00;;;;;21.53;47.08;101898.53;5073065;27;45458;-72
2023/05/16 14:19:15;;;;;;;;;1.00;1.00;;;;;21.53;46.78;101898.53;5071027;28;47896;-71
2023/05/16 14:21:40;;;;;;;;;0.33;0.33;;;;;21.54;46.56;101908.38;5060762;27;45541;-71
2023/05/16 14:24:06;;;;;;;;;1.00;1.00;;;;;21.54;46.87;101909.22;5069641;28;46136;-71
2023/05/16 14:26:31;;;;;;;;;1.67;1.00;;;;;21.52;47.28;101904.94;5060237;27;45544;-74
2023/05/16 14:28:57;;;;;;;;;1.00;1.00;;;;;21.50;46.76;101902.34;5071599;27;45622;-72
2023/05/16 14:31:22;;;;;;;;;0.67;0.67;;;;;21.51;46.71;101908.63;5072049;28;46026;-71
2023/05/16 14:33:47;;;;;;;;;2.00;0.67;;;;;21.50;46.83;101905.06;5070928;27;53361;-71
2023/05/16 14:36:13;;;;;;;;;1.00;1.00;;;;;21.47;46.69;101913.44;5069928;27;58641;-71
2023/05/16 14:38:38;;;;;;;;;1.00;1.00;;;;;21.49;46.45;101914.16;5067945;27;45463;-70
2023/05/16 14:41:04;;;;;;;;;1.00;1.00;;;;;21.45;46.97;101899.19;5072812;28;45827;-71
2023/05/16 14:43:30;;;;;;;;;1.33;1.33;;;;;21.47;47.06;101899.94;5071119;27;46148;-71
2023/05/16 14:45:55;;;;;;;;;1.00;1.00;;;;;21.48;47.39;101904.34;5068061;28;45524;-71
2023/05/16 14:48:20;;;;;;;;;2.00;0.33;;;;;21.54;47.05;101914.63;5071528;27;45390;-71
2023/05/16 14:50:46;;;;;;;;;2.33;1.00;;;;;21.55;47.01;101908.22;5069975;28;45567;-71
2023/05/16 14:53:11;;;;;;;;;1.00;1.00;;;;;21.58;47.29;101899.88;5064913;27;46104;-72
2023/05/16 14:55:37;;;;;;;;;0.00;0.00;;;;;21.56;47.17;101890.19;5068314;27;45878;-72
2023/05/16 14:58:04;;;;;;;;;2.67;2.00;;;;;21.63;47.25;101904.94;5073713;27;45540;-72
2023/05/16 15:00:30;;;;;;;;;2.33;2.00;;;;;21.63;47.38;101902.22;5075860;27;45495;-73
2023/05/16 15:02:56;;;;;;;;;0.00;0.00;;;;;21.64;47.59;101897.66;5075142;27;46207;-73
2023/05/16 15:05:21;;;;;;;;;0.00;0.00;;;;;21.69;47.82;101906.25;5108888;27;45478;-71
2023/05/16 15:07:47;;;;;;;;;1.00;1.00;;;;;21.71;47.92;101912.38;5069686;27;45381;-71
2023/05/16 15:10:12;;;;;;;;;3.00;1.67;;;;;21.64;47.54;101890.44;5071943;28;45351;-71
2023/05/16 15:12:42;;;;;;;;;2.00;1.00;;;;;21.71;47.45;101897.03;5075209;27;45488;-73
2023/05/16 15:15:10;;;;;;;;;3.00;0.67;;;;;21.74;47.55;101900.50;5073740;27;45509;-73
2023/05/16 15:17:40;;;;;;;;;2.67;1.67;;;;;21.77;48.00;101911.91;5075897;27;45402;-72
2023/05/16 15:20:08;;;;;;;;;0.00;0.00;;;;;21.77;47.65;101906.50;5071735;27;45410;-72
2023/05/16 15:22:34;;;;;;;;;1.33;1.00;;;;;21.82;47.83;101912.38;5075505;27;45583;-72
2023/05/16 15:24:59;;;;;;;;;1.00;1.00;;;;;21.83;48.20;101903.25;5071762;27;45609;-72
2023/05/16 15:27:24;;;;;;;;;3.00;1.00;;;;;21.85;47.85;101916.66;5075541;27;45525;-73
2023/05/16 15:29:50;;;;;;;;;1.00;1.00;;;;;21.85;47.90;101911.25;5073582;27;45527;-72
2023/05/16 15:32:16;;;;;;;;;0.33;0.33;;;;;21.84;47.94;101918.50;5070135;27;45422;-72
2023/05/16 15:34:41;;;;;;;;;0.00;0.00;;;;;21.87;47.99;101913.84;5068100;27;45448;-71
2023/05/16 15:37:07;;;;;;;;;2.00;0.00;;;;;21.88;48.15;101902.91;5060345;27;50618;-72
2023/05/16 15:39:32;;;;;;;;;1.00;1.00;;;;;21.89;48.39;101917.25;5068270;27;45588;-73
2023/05/16 15:41:57;;;;;;;;;0.33;0.33;;;;;21.87;48.01;101903.88;5067841;27;52064;-72
2023/05/16 15:44:23;;;;;;;;;0.00;0.00;;;;;21.90;48.01;101914.41;5058216;27;45712;-70
2023/05/16 15:46:48;;;;;;;;;1.33;1.33;;;;;21.89;47.89;101910.00;5074715;28;47105;-70
2023/05/16 15:49:13;;;;;;;;;1.00;1.00;;;;;21.87;47.46;101922.81;5074523;27;45401;-70
2023/05/16 15:51:39;;;;;;;;;0.00;0.00;;;;;21.82;47.94;101916.91;5069262;27;46905;-70
2023/05/16 16:36:31;;;;;;;;;8.33;2.33;;;;;19.19;50.93;101935.19;5105623;27;45730;-73
2023/05/16 16:38:56;;;;;;;;;2.00;1.33;;;;;19.28;50.87;101939.03;5103420;27;46506;-72
2023/05/16 16:41:21;;;;;;;;;0.67;0.33;;;;;19.43;50.85;101951.41;5098649;27;45567;-73
2023/05/16 16:43:49;;;;;;;;;1.00;1.00;;;;;19.57;50.70;101930.66;5098311;27;48226;-72
2023/05/16 16:46:15;;;;;;;;;1.33;1.33;;;;;19.66;49.92;101923.75;5102810;27;46153;-72
2023/05/16 16:48:40;;;;;;;;;1.67;1.00;;;;;19.84;50.13;101929.59;5105784;27;45470;-72
2023/05/16 16:51:06;;;;;;;;;4.33;2.33;;;;;19.96;49.94;101928.69;5108877;27;45336;-72
2023/05/16 16:53:31;;;;;;;;;0.67;0.67;;;;;20.10;49.76;101930.34;5109564;27;45777;-69
2023/05/16 16:55:56;;;;;;;;;1.67;1.67;;;;;20.18;49.22;101918.97;5112542;27;45505;-71
2023/05/16 16:58:22;;;;;;;;;2.00;2.00;;;;;20.25;49.57;101928.31;5100305;27;45328;-71
2023/05/16 17:00:47;;;;;;;;;2.00;2.00;;;;;20.38;48.30;101930.94;5105239;27;45499;-70
2023/05/16 17:03:13;;;;;;;;;2.67;2.67;;;;;20.48;48.21;101935.59;5105383;27;46295;-71
2023/05/16 17:05:38;;;;;;;;;7.00;2.33;;;;;20.52;48.85;101929.00;5094370;27;45407;-76
2023/05/16 17:08:04;;;;;;;;;3.00;1.00;;;;;20.56;48.56;101924.22;5097019;27;56290;-75
2023/05/16 17:10:29;;;;;;;;;5.33;4.00;;;;;20.62;48.13;101921.91;5098203;27;46962;-75
2023/05/16 17:12:58;;;;;;;;;2.00;2.00;;;;;20.74;47.90;101941.66;5096290;27;45646;-72
2023/05/16 17:15:23;;;;;;;;;4.67;2.00;;;;;20.80;48.17;101945.69;5098823;27;47020;-72
2023/05/16 17:17:50;;;;;;;;;4.00;1.67;;;;;20.84;47.98;101943.63;5096616;27;45896;-73
2023/05/16 17:20:15;;;;;;;;;2.67;2.67;;;;;20.86;47.75;101950.66;5096581;27;45453;-73
2023/05/16 17:22:41;;;;;;;;;3.00;3.00;;;;;20.87;48.22;101952.38;5096778;27;46764;-73
2023/05/16 17:25:06;;;;;;;;;4.67;3.00;;;;;20.88;48.25;101948.69;5096915;27;48092;-72
2023/05/16 17:27:32;;;;;;;;;6.33;2.67;;;;;20.90;47.74;101956.66;5099623;27;45601;-74
2023/05/16 17:29:57;;;;;;;;;12.00;3.33;;;;;20.92;47.25;101952.00;5100032;27;45584;-73
2023/05/16 17:32:22;;;;;;;;;4.00;2.00;;;;;20.91;46.93;101951.16;5102051;27;45804;-73
2023/05/16 17:34:48;;;;;;;;;5.33;4.67;;;;;20.95;46.75;101953.59;5106734;27;45647;-73
2023/05/16 17:37:14;;;;;;;;;4.67;3.33;;;;;20.99;46.65;101963.16;5109673;27;45425;-73
2023/05/16 17:39:39;;;;;;;;;4.00;1.00;;;;;21.00;46.62;101965.75;5107599;27;45543;-73
2023/05/16 17:42:05;;;;;;;;;3.00;1.67;;;;;21.02;46.42;101958.41;5110057;27;45777;-73
2023/05/16 17:44:31;;;;;;;;;3.33;2.00;;;;;21.02;46.32;101965.63;5108303;27;46100;-73
2023/05/16 17:46:56;;;;;;;;;2.00;2.00;;;;;21.03;46.90;101965.50;5101334;27;45383;-74
2023/05/16 17:49:22;;;;;;;;;3.67;2.00;;;;;21.04;46.65;101960.97;5095589;27;45448;-73
2023/05/16 17:51:48;;;;;;;;;5.67;2.00;;;;;21.04;46.77;101966.34;5095912;27;45489;-74
2023/05/16 17:54:14;;;;;;;;;3.00;1.00;;;;;21.04;46.57;101969.06;5095044;27;45640;-73
2023/05/16 17:56:41;;;;;;;;;1.67;1.67;;;;;21.06;46.55;101972.50;5090397;27;46923;-73
2023/05/16 17:59:08;;;;;;;;;1.00;1.00;;;;;21.05;46.28;101965.41;5094824;27;45374;-73
2023/05/16 18:01:34;;;;;;;;;2.00;1.00;;;;;21.04;46.25;101977.16;5095279;27;45677;-73
2023/05/16 18:03:59;;;;;;;;;3.00;1.00;;;;;21.02;46.24;101969.19;5095268;27;46116;-73
2023/05/16 18:06:25;;;;;;;;;2.00;2.00;;;;;21.01;45.83;101972.84;5095354;27;45445;-73
2023/05/16 18:08:50;;;;;;;;;3.33;1.67;;;;;21.01;45.81;101966.63;5095196;27;45621;-73
2023/05/16 18:11:16;;;;;;;;;2.00;1.00;;;;;20.99;46.42;101968.56;5095542;27;45427;-73
2023/05/16 18:13:42;;;;;;;;;1.00;1.00;;;;;21.02;46.00;101969.19;5094862;27;45491;-74
2023/05/16 18:16:08;;;;;;;;;2.67;2.67;;;;;21.02;46.19;101979.13;5095190;27;45440;-73
2023/05/16 18:18:37;;;;;;;;;1.00;1.00;;;;;21.00;46.21;101970.28;5095238;27;45466;-73
2023/05/16 18:21:04;;;;;;;;;2.33;2.33;;;;;21.01;46.48;101977.41;5095297;27;45515;-82
2023/05/16 18:23:30;;;;;;;;;5.33;2.33;;;;;20.99;46.21;101982.94;5091557;27;47174;-83
2023/05/16 18:25:55;;;;;;;;;1.00;1.00;;;;;20.99;46.82;101992.84;5084128;27;45678;-83
2023/05/16 18:28:21;;;;;;;;;3.33;3.00;;;;;20.96;46.41;101980.47;5081010;27;45482;-83
2023/05/16 18:30:46;;;;;;;;;2.33;1.67;;;;;20.95;46.37;101976.06;5083502;27;45684;-84
2023/05/16 18:33:12;;;;;;;;;2.00;0.67;;;;;20.95;46.53;101983.28;5085405;27;45516;-84
2023/05/16 18:35:37;;;;;;;;;5.33;3.33;;;;;20.94;46.35;101987.84;5082079;27;45481;-82